Time;durP1;ratioP1;P1;durP2;ratioP2;P2;SDS_P1;SDS_P2;PMS_P1;PMS_P2;Temp;Humidity;BMP_temperature;BMP_pressure;BME280_temperature;BME280_humidity;BME280_pressure;Samples;Min_cycle;Max_cycle;Signal;HPM_P1;HPM_P2
2021/12/08 00:01:07;;;;;;;;;;;-0.40;99.90;;;;;;5049073;28;20143;-78
2021/12/08 00:03:33;;;;;;;;;;;-0.40;99.90;;;;;;5049690;28;20389;-78
2021/12/08 00:05:59;;;;;;;;;;;-0.30;99.90;;;;;;5049336;28;20008;-80
2021/12/08 00:08:27;;;;;;;;;;;-0.30;99.90;;;;;;5050019;28;19909;-79
2021/12/08 00:13:22;;;;;;;;;;;-0.20;99.90;;;;;;5069002;28;19897;-85
2021/12/08 00:15:49;;;;;;;;;;;-0.20;99.90;;;;;;5071010;28;19958;-83
2021/12/08 00:18:17;;;;;;;;;;;-0.20;99.90;;;;;;5055721;28;19912;-78
2021/12/08 00:20:45;;;;;;;;;;;-0.20;99.90;;;;;;5051148;28;19916;-77
2021/12/08 00:23:11;;;;;;;;;;;-0.20;99.90;;;;;;5045415;28;19909;-78
2021/12/08 00:25:37;;;;;;;;;;;-0.20;99.90;;;;;;5050775;28;20387;-78
2021/12/08 00:28:03;;;;;;;;;;;-0.10;99.90;;;;;;5052027;28;19960;-77
2021/12/08 00:30:29;;;;;;;;;;;0.00;99.90;;;;;;5052166;28;20482;-81
2021/12/08 00:32:56;;;;;;;;;;;0.20;99.90;;;;;;5052024;28;19912;-78
2021/12/08 00:35:22;;;;;;;;;;;0.40;99.90;;;;;;5051886;28;19909;-80
2021/12/08 00:37:48;;;;;;;;;;;0.40;99.90;;;;;;5051970;28;19966;-79
2021/12/08 00:40:14;;;;;;;;;;;0.50;99.90;;;;;;5051957;28;19917;-78
2021/12/08 00:42:40;;;;;;;;;;;0.50;99.90;;;;;;5051649;28;20281;-78
2021/12/08 00:45:07;;;;;;;;;;;0.40;99.90;;;;;;5051648;28;19913;-80
2021/12/08 00:47:32;;;;;;;;;;;0.40;99.90;;;;;;5052076;28;19909;-79
2021/12/08 00:49:58;;;;;;;;;;;0.30;99.90;;;;;;5051675;28;19915;-78
2021/12/08 00:52:28;;;;;;;;;;;0.20;99.90;;;;;;5042705;28;19995;-80
2021/12/08 00:54:54;;;;;;;;;;;0.30;99.90;;;;;;5051183;28;19958;-80
2021/12/08 00:57:20;;;;;;;;;;;0.20;99.90;;;;;;5051457;28;19952;-79
2021/12/08 00:59:45;;;;;;;;;;;0.20;99.90;;;;;;5051714;28;19959;-79
2021/12/08 01:02:11;;;;;;;;;;;0.20;99.90;;;;;;5051653;28;19913;-79
2021/12/08 01:04:36;;;;;;;;;;;0.20;99.90;;;;;;5051203;28;19909;-80
2021/12/08 01:07:03;;;;;;;;;;;0.20;99.90;;;;;;5051537;28;19909;-79
2021/12/08 01:09:28;;;;;;;;;;;0.20;99.90;;;;;;5051486;28;19932;-81
2021/12/08 01:11:56;;;;;;;;;;;0.10;99.90;;;;;;5051257;28;20365;-79
2021/12/08 01:14:22;;;;;;;;;;;0.10;99.90;;;;;;5049769;28;20374;-83
2021/12/08 01:16:48;;;;;;;;;;;0.10;99.90;;;;;;5051414;28;19936;-78
2021/12/08 01:19:13;;;;;;;;;;;0.10;99.90;;;;;;5051169;28;20389;-79
2021/12/08 01:21:39;;;;;;;;;;;0.20;99.90;;;;;;5050797;28;19952;-79
2021/12/08 01:24:04;;;;;;;;;;;0.20;99.90;;;;;;5050719;28;19909;-79
2021/12/08 01:26:30;;;;;;;;;;;0.20;99.90;;;;;;5050249;28;19921;-78
2021/12/08 01:28:57;;;;;;;;;;;0.20;99.90;;;;;;5051199;28;19912;-79
2021/12/08 01:31:25;;;;;;;;;;;0.20;99.90;;;;;;5051124;28;20007;-78
2021/12/08 01:33:51;;;;;;;;;;;0.20;99.90;;;;;;5050828;28;19908;-79
2021/12/08 01:36:17;;;;;;;;;;;0.20;99.90;;;;;;5051104;28;19932;-82
2021/12/08 01:38:45;;;;;;;;;;;0.20;99.90;;;;;;5050224;28;20224;-79
2021/12/08 01:41:10;;;;;;;;;;;0.20;99.90;;;;;;5050998;28;20003;-78
2021/12/08 01:46:21;;;;;;;;;;;0.20;99.90;;;;;;5047409;28;20364;-79
2021/12/08 01:48:47;;;;;;;;;;;0.20;99.90;;;;;;5051285;28;20374;-78
2021/12/08 01:51:14;;;;;;;;;;;0.20;99.90;;;;;;5050704;28;19913;-78
2021/12/08 01:53:41;;;;;;;;;;;0.20;99.90;;;;;;5048972;28;19916;-79
2021/12/08 01:56:07;;;;;;;;;;;0.20;99.90;;;;;;5049654;28;19908;-78
2021/12/08 01:58:32;;;;;;;;;;;0.20;99.90;;;;;;5050912;28;19966;-79
2021/12/08 02:01:00;;;;;;;;;;;0.10;99.90;;;;;;5049510;28;19909;-79
2021/12/08 02:03:26;;;;;;;;;;;0.20;99.90;;;;;;5049129;28;20008;-82
2021/12/08 02:05:52;;;;;;;;;;;0.10;99.90;;;;;;5049623;28;20349;-81
2021/12/08 02:08:18;;;;;;;;;;;0.10;99.90;;;;;;5050781;28;19966;-81
2021/12/08 02:10:44;;;;;;;;;;;0.10;99.90;;;;;;5050772;28;19913;-82
2021/12/08 02:13:09;;;;;;;;;;;0.10;99.90;;;;;;5050310;28;20372;-81
2021/12/08 02:15:36;;;;;;;;;;;0.10;99.90;;;;;;5050799;28;20436;-79
2021/12/08 02:18:02;;;;;;;;;;;0.10;99.90;;;;;;5051028;28;20266;-79
2021/12/08 02:20:28;;;;;;;;;;;0.10;99.90;;;;;;5050381;28;19916;-81
2021/12/08 02:22:54;;;;;;;;;;;0.10;99.90;;;;;;5050056;28;19909;-83
2021/12/08 02:25:21;;;;;;;;;;;0.10;99.90;;;;;;5050476;28;19913;-79
2021/12/08 02:27:47;;;;;;;;;;;0.10;99.90;;;;;;5044392;28;19921;-80
2021/12/08 02:30:41;;;;;;;;;;;0.10;99.90;;;;;;5049326;28;19913;-79
2021/12/08 02:46:51;;;;;;;;;;;0.10;99.90;;;;;;5054073;28;19932;-79
2021/12/08 02:49:18;;;;;;;;;;;0.10;99.90;;;;;;5054080;28;19955;-80
2021/12/08 02:51:44;;;;;;;;;;;0.10;99.90;;;;;;5052287;28;19913;-82
2021/12/08 02:54:10;;;;;;;;;;;0.20;99.90;;;;;;5048536;28;20332;-78
2021/12/08 02:56:35;;;;;;;;;;;0.20;99.90;;;;;;5054160;28;19916;-79
2021/12/08 02:59:02;;;;;;;;;;;0.20;99.90;;;;;;5052621;28;20456;-80
2021/12/08 03:01:28;;;;;;;;;;;0.20;99.90;;;;;;5053654;28;19963;-79
2021/12/08 03:03:54;;;;;;;;;;;0.20;99.90;;;;;;5053575;28;20324;-78
2021/12/08 03:06:20;;;;;;;;;;;0.20;99.90;;;;;;5053681;28;19932;-80
2021/12/08 03:08:47;;;;;;;;;;;0.30;99.90;;;;;;5053736;28;19908;-79
2021/12/08 03:11:13;;;;;;;;;;;0.20;99.90;;;;;;5052257;28;19964;-79
2021/12/08 03:13:43;;;;;;;;;;;0.20;99.90;;;;;;5053293;28;20375;-79
2021/12/08 03:16:09;;;;;;;;;;;0.30;99.90;;;;;;5053478;28;19916;-79
2021/12/08 03:18:37;;;;;;;;;;;0.30;99.90;;;;;;5053493;28;20324;-79
2021/12/08 03:21:04;;;;;;;;;;;0.30;99.90;;;;;;5053087;28;19909;-79
2021/12/08 03:23:45;;;;;;;;;;;0.30;99.90;;;;;;5049673;28;19909;-79
2021/12/08 03:26:10;;;;;;;;;;;0.30;99.90;;;;;;5053196;28;19916;-79
2021/12/08 03:28:42;;;;;;;;;;;0.30;99.90;;;;;;5052088;28;20281;-80
2021/12/08 03:31:13;;;;;;;;;;;0.30;99.90;;;;;;5053100;28;20324;-79
2021/12/08 03:33:40;;;;;;;;;;;0.30;99.90;;;;;;5052928;28;19953;-78
2021/12/08 03:36:06;;;;;;;;;;;0.20;99.90;;;;;;5051952;28;19915;-82
2021/12/08 03:38:32;;;;;;;;;;;0.20;99.90;;;;;;5053131;28;20015;-81
2021/12/08 03:40:58;;;;;;;;;;;0.30;99.90;;;;;;5051739;28;19913;-79
2021/12/08 03:43:24;;;;;;;;;;;0.30;99.90;;;;;;5052744;28;19913;-82
2021/12/08 03:45:51;;;;;;;;;;;0.20;99.90;;;;;;5052898;28;20251;-81
2021/12/08 03:48:27;;;;;;;;;;;0.30;99.90;;;;;;5050766;28;19913;-80
2021/12/08 03:50:53;;;;;;;;;;;0.30;99.90;;;;;;5050472;28;20385;-80
2021/12/08 03:53:19;;;;;;;;;;;0.30;99.90;;;;;;5049134;28;19909;-79
2021/12/08 03:55:45;;;;;;;;;;;0.30;99.90;;;;;;5052837;28;19916;-80
2021/12/08 03:58:11;;;;;;;;;;;0.30;99.90;;;;;;5051381;28;19917;-80
2021/12/08 04:00:38;;;;;;;;;;;0.20;99.90;;;;;;5052514;28;19916;-79
2021/12/08 04:03:04;;;;;;;;;;;0.30;99.90;;;;;;5052470;28;19923;-79
2021/12/08 04:05:40;;;;;;;;;;;0.20;99.90;;;;;;5051279;28;20402;-78
2021/12/08 04:08:15;;;;;;;;;;;0.30;99.90;;;;;;5051351;28;19916;-79
2021/12/08 04:10:42;;;;;;;;;;;0.30;99.90;;;;;;5052541;28;19916;-80
2021/12/08 04:13:08;;;;;;;;;;;0.30;99.90;;;;;;5050643;28;20376;-79
2021/12/08 04:15:33;;;;;;;;;;;0.90;99.90;;;;;;5052372;28;19948;-79
2021/12/08 04:17:59;;;;;;;;;;;1.40;99.90;;;;;;5052336;28;19920;-80
2021/12/08 04:20:32;;;;;;;;;;;1.50;99.90;;;;;;5050968;28;19912;-82
2021/12/08 04:22:59;;;;;;;;;;;1.50;99.90;;;;;;5043794;28;19948;-80
2021/12/08 04:25:27;;;;;;;;;;;1.70;99.90;;;;;;5052258;28;20266;-79
2021/12/08 04:27:54;;;;;;;;;;;1.90;99.90;;;;;;5052025;28;20388;-81
2021/12/08 04:30:22;;;;;;;;;;;2.00;99.90;;;;;;5052204;28;19909;-79
2021/12/08 04:32:48;;;;;;;;;;;2.00;99.90;;;;;;5052045;28;19954;-79
2021/12/08 04:35:15;;;;;;;;;;;2.00;99.90;;;;;;5051794;28;19913;-81
2021/12/08 04:37:45;;;;;;;;;;;2.00;99.90;;;;;;5052151;28;19909;-80
2021/12/08 04:40:24;;;;;;;;;;;2.10;99.90;;;;;;5051900;28;20286;-78
2021/12/08 04:45:35;;;;;;;;;;;2.10;99.90;;;;;;5046657;28;19909;-82
2021/12/08 04:50:48;;;;;;;;;;;2.00;99.90;;;;;;5051766;28;20094;-79
2021/12/08 05:01:32;;;;;;;;;;;2.00;99.90;;;;;;5051956;28;19963;-79
2021/12/08 05:09:03;;;;;;;;;;;2.00;99.90;;;;;;5051735;28;19912;-79
2021/12/08 05:11:31;;;;;;;;;;;2.00;99.90;;;;;;5044913;28;19909;-80
2021/12/08 05:14:10;;;;;;;;;;;1.90;99.90;;;;;;5051006;28;19913;-79
2021/12/08 05:16:37;;;;;;;;;;;2.00;99.90;;;;;;5051202;28;19909;-79
2021/12/08 05:19:04;;;;;;;;;;;1.90;99.90;;;;;;5051276;28;19964;-83
2021/12/08 05:21:35;;;;;;;;;;;1.80;99.90;;;;;;5051041;28;20365;-79
2021/12/08 05:24:07;;;;;;;;;;;1.90;99.90;;;;;;5046506;28;19909;-79
2021/12/08 05:26:43;;;;;;;;;;;1.90;99.90;;;;;;5049774;28;19924;-79
2021/12/08 05:29:14;;;;;;;;;;;1.90;99.90;;;;;;5051052;28;20384;-82
2021/12/08 05:31:40;;;;;;;;;;;1.90;99.90;;;;;;5050877;28;20079;-79
2021/12/08 05:34:06;;;;;;;;;;;1.80;99.90;;;;;;5050842;28;19964;-79
2021/12/08 05:36:32;;;;;;;;;;;1.80;99.90;;;;;;5050906;28;19913;-79
2021/12/08 05:38:58;;;;;;;;;;;1.90;99.90;;;;;;5049735;28;20254;-79
2021/12/08 05:41:31;;;;;;;;;;;2.10;99.90;;;;;;5050996;28;20007;-79
2021/12/08 05:43:57;;;;;;;;;;;2.10;99.90;;;;;;5050691;28;19956;-82
2021/12/08 05:46:25;;;;;;;;;;;2.10;99.90;;;;;;5049690;28;19915;-78
2021/12/08 05:48:52;;;;;;;;;;;2.00;99.90;;;;;;5049531;28;19958;-80
2021/12/08 05:51:22;;;;;;;;;;;2.10;99.90;;;;;;5049018;28;19908;-80
2021/12/08 05:53:49;;;;;;;;;;;2.10;99.90;;;;;;5045222;28;19909;-79
2021/12/08 05:56:15;;;;;;;;;;;2.10;99.90;;;;;;5051024;28;19909;-81
2021/12/08 05:58:42;;;;;;;;;;;2.10;99.90;;;;;;5050712;28;19912;-83
2021/12/08 06:01:13;;;;;;;;;;;2.00;99.90;;;;;;5050787;28;20369;-79
2021/12/08 06:03:42;;;;;;;;;;;2.10;99.90;;;;;;5050378;28;19916;-79
2021/12/08 06:06:07;;;;;;;;;;;2.20;99.90;;;;;;5050812;28;19909;-82
2021/12/08 06:08:33;;;;;;;;;;;2.30;99.90;;;;;;5050740;28;20052;-78
2021/12/08 06:11:00;;;;;;;;;;;2.30;99.90;;;;;;5049603;28;20406;-79
2021/12/08 06:13:26;;;;;;;;;;;2.30;99.90;;;;;;5053029;28;20380;-80
2021/12/08 06:15:52;;;;;;;;;;;2.30;99.90;;;;;;5054623;28;19909;-82
2021/12/08 06:18:21;;;;;;;;;;;2.40;99.90;;;;;;5054627;28;20404;-78
2021/12/08 06:20:47;;;;;;;;;;;2.40;99.90;;;;;;5054340;28;19909;-79
2021/12/08 06:23:13;;;;;;;;;;;2.30;99.90;;;;;;5053450;28;19913;-79
2021/12/08 06:25:39;;;;;;;;;;;2.20;99.90;;;;;;5055160;28;20472;-80
2021/12/08 06:28:05;;;;;;;;;;;2.30;99.90;;;;;;5053572;28;19917;-79
2021/12/08 06:30:33;;;;;;;;;;;2.20;99.90;;;;;;5054859;28;19915;-80
2021/12/08 06:32:59;;;;;;;;;;;2.20;99.90;;;;;;5054402;28;19994;-80
2021/12/08 06:35:29;;;;;;;;;;;2.20;99.90;;;;;;5054860;28;19944;-79
2021/12/08 06:37:55;;;;;;;;;;;2.30;99.90;;;;;;5053468;28;19913;-77
2021/12/08 06:40:47;;;;;;;;;;;2.20;99.90;;;;;;5054789;28;20004;-77
2021/12/08 06:43:14;;;;;;;;;;;2.20;99.90;;;;;;5052347;28;19917;-78
2021/12/08 06:45:42;;;;;;;;;;;2.20;99.90;;;;;;5054140;28;19913;-78
2021/12/08 06:48:10;;;;;;;;;;;2.30;99.90;;;;;;5054084;28;19909;-78
2021/12/08 06:50:37;;;;;;;;;;;2.30;99.90;;;;;;5053871;28;20293;-82
2021/12/08 06:53:03;;;;;;;;;;;2.20;99.90;;;;;;5049002;28;19909;-78
2021/12/08 06:55:31;;;;;;;;;;;2.10;99.90;;;;;;5053862;28;19909;-78
2021/12/08 06:58:00;;;;;;;;;;;2.00;99.90;;;;;;5053948;28;19956;-79
2021/12/08 07:00:47;;;;;;;;;;;2.00;99.90;;;;;;5053882;28;19984;-78
2021/12/08 07:06:07;;;;;;;;;;;2.10;99.90;;;;;;5053877;28;19909;-77
2021/12/08 07:08:35;;;;;;;;;;;2.00;99.90;;;;;;5053433;28;20273;-77
2021/12/08 07:11:00;;;;;;;;;;;2.10;99.90;;;;;;5053614;28;19916;-78
2021/12/08 07:13:28;;;;;;;;;;;2.10;99.90;;;;;;5053708;28;20251;-77
2021/12/08 07:16:00;;;;;;;;;;;2.10;99.90;;;;;;5054055;28;20334;-78
2021/12/08 07:19:01;;;;;;;;;;;2.00;99.90;;;;;;5051351;28;19913;-78
2021/12/08 07:21:32;;;;;;;;;;;2.00;99.90;;;;;;5051208;28;19913;-78
2021/12/08 07:24:01;;;;;;;;;;;2.00;99.90;;;;;;5049698;28;19991;-78
2021/12/08 07:26:28;;;;;;;;;;;2.00;99.90;;;;;;5050478;28;20019;-79
2021/12/08 07:28:54;;;;;;;;;;;2.00;99.90;;;;;;5052964;28;19909;-84
2021/12/08 07:31:22;;;;;;;;;;;2.00;99.90;;;;;;5053122;28;19916;-80
2021/12/08 07:33:48;;;;;;;;;;;1.90;99.90;;;;;;5049617;28;19909;-80
2021/12/08 07:36:17;;;;;;;;;;;1.90;99.90;;;;;;5053148;28;19919;-82
2021/12/08 07:38:43;;;;;;;;;;;1.90;99.90;;;;;;5053971;28;19919;-79
2021/12/08 07:41:15;;;;;;;;;;;1.90;99.90;;;;;;5053775;28;19916;-80
2021/12/08 07:43:43;;;;;;;;;;;2.00;99.90;;;;;;5052375;28;20039;-80
2021/12/08 07:46:15;;;;;;;;;;;2.00;99.90;;;;;;5053560;28;19959;-79
2021/12/08 07:48:43;;;;;;;;;;;2.00;99.90;;;;;;5044034;28;20354;-78
2021/12/08 07:51:31;;;;;;;;;;;2.00;99.90;;;;;;5052954;28;19916;-79
2021/12/08 07:53:56;;;;;;;;;;;2.00;99.90;;;;;;5050669;28;19916;-79
2021/12/08 07:56:23;;;;;;;;;;;1.90;99.90;;;;;;5053072;28;19913;-81
2021/12/08 07:58:52;;;;;;;;;;;1.90;99.90;;;;;;5051750;28;20385;-79
2021/12/08 08:01:20;;;;;;;;;;;2.00;99.90;;;;;;5051629;28;20346;-80
2021/12/08 08:03:47;;;;;;;;;;;2.00;99.90;;;;;;5051140;28;19909;-79
2021/12/08 08:06:17;;;;;;;;;;;1.90;99.90;;;;;;5052623;28;20003;-80
2021/12/08 08:08:42;;;;;;;;;;;2.00;99.90;;;;;;5052373;28;19909;-80
2021/12/08 08:11:11;;;;;;;;;;;1.90;99.90;;;;;;5051275;28;20365;-78
2021/12/08 08:13:37;;;;;;;;;;;1.90;99.90;;;;;;5052198;28;19962;-81
2021/12/08 08:16:08;;;;;;;;;;;1.80;99.90;;;;;;5061568;28;19941;-79
2021/12/08 08:18:35;;;;;;;;;;;1.80;99.90;;;;;;5066997;28;19917;-79
2021/12/08 08:21:03;;;;;;;;;;;1.70;99.90;;;;;;5063613;28;19932;-80
2021/12/08 08:23:31;;;;;;;;;;;1.70;99.90;;;;;;5061081;28;19916;-82
2021/12/08 08:25:57;;;;;;;;;;;1.70;99.90;;;;;;5064035;28;19913;-82
2021/12/08 08:28:23;;;;;;;;;;;1.80;99.90;;;;;;5065696;28;20266;-80
2021/12/08 08:30:54;;;;;;;;;;;1.80;99.90;;;;;;5061291;28;19962;-80
2021/12/08 08:33:20;;;;;;;;;;;1.80;99.90;;;;;;5061377;28;19909;-80
2021/12/08 08:35:48;;;;;;;;;;;1.90;99.90;;;;;;5059833;28;19913;-80
2021/12/08 08:38:19;;;;;;;;;;;1.90;99.90;;;;;;5062686;28;19923;-80
2021/12/08 08:40:50;;;;;;;;;;;2.00;99.90;;;;;;5062705;28;20382;-80
2021/12/08 08:43:16;;;;;;;;;;;2.00;99.90;;;;;;5063815;28;19913;-80
2021/12/08 08:45:52;;;;;;;;;;;2.00;99.90;;;;;;5062685;28;19913;-80
2021/12/08 08:48:20;;;;;;;;;;;2.00;99.90;;;;;;5059142;28;19920;-80
2021/12/08 08:50:48;;;;;;;;;;;2.00;99.90;;;;;;5062605;28;19909;-80
2021/12/08 08:53:14;;;;;;;;;;;1.90;99.90;;;;;;5053451;28;20070;-80
2021/12/08 08:56:00;;;;;;;;;;;1.90;99.90;;;;;;5060296;28;19958;-81
2021/12/08 08:58:28;;;;;;;;;;;1.90;99.90;;;;;;5062114;28;19920;-80
2021/12/08 09:00:53;;;;;;;;;;;1.90;99.90;;;;;;5057386;28;19909;-80
2021/12/08 09:03:21;;;;;;;;;;;1.90;99.90;;;;;;5063209;28;19962;-80
2021/12/08 09:05:52;;;;;;;;;;;2.10;99.90;;;;;;5065199;28;19909;-80
2021/12/08 09:08:22;;;;;;;;;;;2.20;99.90;;;;;;5064944;28;19909;-81
2021/12/08 09:10:54;;;;;;;;;;;2.20;99.90;;;;;;5062412;28;19940;-81
2021/12/08 09:13:26;;;;;;;;;;;2.20;99.90;;;;;;5061113;28;19962;-80
2021/12/08 09:15:54;;;;;;;;;;;2.30;99.90;;;;;;5051542;28;19909;-79
2021/12/08 09:18:29;;;;;;;;;;;2.30;99.90;;;;;;5051774;28;19935;-78
2021/12/08 09:21:01;;;;;;;;;;;2.30;99.90;;;;;;5051523;28;19932;-79
2021/12/08 09:23:39;;;;;;;;;;;2.30;99.90;;;;;;5049644;28;19909;-79
2021/12/08 09:26:07;;;;;;;;;;;2.20;99.90;;;;;;5051241;28;19908;-79
2021/12/08 09:28:56;;;;;;;;;;;2.20;99.90;;;;;;5050806;28;19913;-79
2021/12/08 09:31:26;;;;;;;;;;;2.20;99.90;;;;;;5048005;28;19909;-79
2021/12/08 09:33:56;;;;;;;;;;;2.30;99.90;;;;;;5049237;28;19908;-79
2021/12/08 09:36:27;;;;;;;;;;;2.30;99.90;;;;;;5049758;28;19948;-79
2021/12/08 09:38:55;;;;;;;;;;;2.30;99.90;;;;;;5051023;28;20027;-79
2021/12/08 09:41:26;;;;;;;;;;;2.50;99.90;;;;;;5050822;28;20012;-79
2021/12/08 09:43:54;;;;;;;;;;;2.50;99.90;;;;;;5049616;28;20262;-79
2021/12/08 09:46:23;;;;;;;;;;;2.50;99.90;;;;;;5050071;28;19909;-77
2021/12/08 09:48:49;;;;;;;;;;;2.60;99.90;;;;;;5047953;28;20274;-75
2021/12/08 09:51:19;;;;;;;;;;;2.60;99.90;;;;;;5050783;28;19909;-76
2021/12/08 09:53:45;;;;;;;;;;;2.60;99.90;;;;;;5045700;28;20438;-76
2021/12/08 09:56:11;;;;;;;;;;;2.60;99.90;;;;;;5050031;28;19909;-78
2021/12/08 09:58:37;;;;;;;;;;;2.60;99.90;;;;;;5051283;28;20204;-77
2021/12/08 10:01:04;;;;;;;;;;;2.50;99.90;;;;;;5050716;28;19909;-77
2021/12/08 10:03:30;;;;;;;;;;;2.50;99.90;;;;;;5050752;28;19966;-77
2021/12/08 10:05:55;;;;;;;;;;;2.50;99.90;;;;;;5050721;28;19999;-76
2021/12/08 10:08:21;;;;;;;;;;;2.40;99.90;;;;;;5050786;28;20000;-77
2021/12/08 10:10:47;;;;;;;;;;;2.40;99.90;;;;;;5050110;28;19912;-77
2021/12/08 10:13:14;;;;;;;;;;;2.30;99.90;;;;;;5048586;28;20398;-76
2021/12/08 10:15:39;;;;;;;;;;;2.40;99.90;;;;;;5050651;28;19932;-78
2021/12/08 10:18:05;;;;;;;;;;;2.30;99.90;;;;;;5050786;28;19913;-76
2021/12/08 10:20:33;;;;;;;;;;;2.30;99.90;;;;;;5050931;28;20284;-76
2021/12/08 10:23:16;;;;;;;;;;;2.40;99.90;;;;;;5045979;28;20285;-76
2021/12/08 10:26:02;;;;;;;;;;;2.30;99.90;;;;;;5044543;28;20281;-78
2021/12/08 10:28:35;;;;;;;;;;;2.50;99.90;;;;;;5068960;28;19900;-76
2021/12/08 10:31:03;;;;;;;;;;;2.60;99.90;;;;;;5074429;28;19909;-77
2021/12/08 10:33:37;;;;;;;;;;;2.70;99.90;;;;;;5074243;28;19955;-77
2021/12/08 10:36:15;;;;;;;;;;;2.70;99.90;;;;;;5073722;28;19897;-76
2021/12/08 10:38:41;;;;;;;;;;;2.70;99.90;;;;;;5050501;28;20389;-76
2021/12/08 10:41:07;;;;;;;;;;;2.70;99.90;;;;;;5051176;28;19912;-75
2021/12/08 10:43:33;;;;;;;;;;;2.60;99.90;;;;;;5051399;28;20369;-76
2021/12/08 10:46:09;;;;;;;;;;;2.70;99.90;;;;;;5051480;28;19991;-77
2021/12/08 10:48:37;;;;;;;;;;;2.60;99.90;;;;;;5043011;28;19948;-76
2021/12/08 10:56:43;;;;;;;;;;;2.60;99.90;;;;;;5076597;28;19904;-79
2021/12/08 10:59:09;;;;;;;;;;;2.80;99.90;;;;;;5079134;28;19909;-78
2021/12/08 11:01:35;;;;;;;;;;;2.90;99.90;;;;;;5076277;28;19908;-78
2021/12/08 11:04:02;;;;;;;;;;;2.90;99.90;;;;;;5078510;28;19901;-78
2021/12/08 11:06:35;;;;;;;;;;;3.10;99.90;;;;;;5079383;28;19905;-78
2021/12/08 11:09:02;;;;;;;;;;;3.20;99.90;;;;;;5071168;28;19900;-79
2021/12/08 11:11:32;;;;;;;;;;;3.20;99.90;;;;;;5079849;28;19932;-78
2021/12/08 11:14:02;;;;;;;;;;;3.30;99.90;;;;;;5079371;28;19901;-78
2021/12/08 11:16:32;;;;;;;;;;;3.30;99.90;;;;;;5079125;28;19904;-76
2021/12/08 11:19:01;;;;;;;;;;;3.20;99.90;;;;;;5079418;28;19912;-79
2021/12/08 11:21:31;;;;;;;;;;;3.10;99.90;;;;;;5072061;28;19898;-76
2021/12/08 11:23:59;;;;;;;;;;;3.10;99.90;;;;;;5049287;28;20035;-77
2021/12/08 11:26:25;;;;;;;;;;;3.10;99.90;;;;;;5052862;28;19978;-76
2021/12/08 11:29:11;;;;;;;;;;;3.20;99.90;;;;;;5053963;28;19913;-76
2021/12/08 11:31:47;;;;;;;;;;;3.10;99.90;;;;;;5046272;28;19971;-75
2021/12/08 11:34:14;;;;;;;;;;;3.10;99.90;;;;;;5053255;28;20392;-75
2021/12/08 11:36:40;;;;;;;;;;;3.20;99.90;;;;;;5054972;28;19908;-77
2021/12/08 11:39:17;;;;;;;;;;;3.40;99.90;;;;;;5078821;28;19931;-79
2021/12/08 11:41:44;;;;;;;;;;;3.40;99.90;;;;;;5079263;28;19976;-82
2021/12/08 11:44:12;;;;;;;;;;;3.50;99.90;;;;;;5079000;28;19960;-78
2021/12/08 11:46:42;;;;;;;;;;;3.60;99.90;;;;;;5070766;28;19912;-76
2021/12/08 11:49:09;;;;;;;;;;;3.70;99.90;;;;;;5048312;28;19916;-75
2021/12/08 11:51:44;;;;;;;;;;;3.70;99.90;;;;;;5050826;28;20016;-76
2021/12/08 11:54:27;;;;;;;;;;;3.60;99.90;;;;;;5052580;28;20365;-76
2021/12/08 11:57:00;;;;;;;;;;;3.40;99.90;;;;;;5052114;28;19939;-76
2021/12/08 11:59:25;;;;;;;;;;;3.40;99.90;;;;;;5052152;28;19923;-76
2021/12/08 12:01:51;;;;;;;;;;;3.50;99.90;;;;;;5052545;28;20358;-76
2021/12/08 12:04:16;;;;;;;;;;;3.50;99.90;;;;;;5051099;28;19908;-76
2021/12/08 12:06:42;;;;;;;;;;;3.40;99.90;;;;;;5052734;28;20003;-78
2021/12/08 12:09:08;;;;;;;;;;;3.40;99.90;;;;;;5052205;28;19913;-76
2021/12/08 12:11:34;;;;;;;;;;;3.40;99.90;;;;;;5052683;28;19908;-75
2021/12/08 12:13:59;;;;;;;;;;;3.30;99.90;;;;;;5052419;28;20335;-76
2021/12/08 12:16:25;;;;;;;;;;;3.30;99.90;;;;;;5052775;28;19962;-76
2021/12/08 12:18:56;;;;;;;;;;;3.30;99.90;;;;;;5053767;28;19912;-75
2021/12/08 12:21:33;;;;;;;;;;;3.40;99.90;;;;;;5052473;28;19955;-76
2021/12/08 12:24:17;;;;;;;;;;;3.50;99.90;;;;;;5052077;28;20289;-76
2021/12/08 12:26:58;;;;;;;;;;;3.50;99.90;;;;;;5052216;28;19912;-76
2021/12/08 12:29:44;;;;;;;;;;;3.40;99.90;;;;;;5052456;28;19913;-76
2021/12/08 12:32:36;;;;;;;;;;;3.40;99.90;;;;;;5051906;28;19909;-76
2021/12/08 12:35:10;;;;;;;;;;;3.40;99.90;;;;;;5043257;28;19909;-76
2021/12/08 12:37:36;;;;;;;;;;;3.40;99.90;;;;;;5052500;28;19909;-76
2021/12/08 12:40:03;;;;;;;;;;;3.50;99.90;;;;;;5052183;28;19919;-77
2021/12/08 12:42:42;;;;;;;;;;;3.50;99.90;;;;;;5051806;28;19995;-76
2021/12/08 12:45:09;;;;;;;;;;;3.40;99.90;;;;;;5051723;28;19909;-76
2021/12/08 12:47:35;;;;;;;;;;;3.50;99.90;;;;;;5051838;28;19913;-75
2021/12/08 12:50:04;;;;;;;;;;;3.50;99.90;;;;;;5045820;28;19917;-76
2021/12/08 12:52:49;;;;;;;;;;;3.50;99.90;;;;;;5040105;28;20355;-75
2021/12/08 12:55:17;;;;;;;;;;;3.50;99.90;;;;;;5050252;28;20354;-75
2021/12/08 12:58:01;;;;;;;;;;;3.40;99.90;;;;;;5051929;28;19915;-75
2021/12/08 13:00:28;;;;;;;;;;;3.30;99.90;;;;;;5050594;28;20007;-76
2021/12/08 13:02:54;;;;;;;;;;;3.40;99.90;;;;;;5049936;28;19913;-78
2021/12/08 13:05:19;;;;;;;;;;;3.40;99.90;;;;;;5051828;28;19916;-76
2021/12/08 13:08:00;;;;;;;;;;;3.50;99.90;;;;;;5051774;28;20305;-76
2021/12/08 13:10:37;;;;;;;;;;;3.50;99.90;;;;;;5047119;28;19909;-76
2021/12/08 13:13:10;;;;;;;;;;;3.50;99.90;;;;;;5050058;28;20388;-78
2021/12/08 13:15:36;;;;;;;;;;;3.50;99.90;;;;;;5051788;28;20054;-77
2021/12/08 13:18:06;;;;;;;;;;;3.50;99.90;;;;;;5051425;28;20019;-77
2021/12/08 13:20:33;;;;;;;;;;;3.40;99.90;;;;;;5051065;28;19999;-78
2021/12/08 13:23:21;;;;;;;;;;;3.40;99.90;;;;;;5048518;28;19997;-78
2021/12/08 13:25:57;;;;;;;;;;;3.50;99.90;;;;;;5045773;28;19918;-77
2021/12/08 13:28:27;;;;;;;;;;;3.40;99.90;;;;;;5051293;28;19970;-77
2021/12/08 13:30:58;;;;;;;;;;;3.40;99.90;;;;;;5049853;28;19915;-77
2021/12/08 13:33:35;;;;;;;;;;;3.40;99.90;;;;;;5050783;28;19913;-78
2021/12/08 13:36:21;;;;;;;;;;;3.40;99.90;;;;;;5051248;28;19913;-78
2021/12/08 13:39:07;;;;;;;;;;;3.40;99.90;;;;;;5049811;28;20301;-78
2021/12/08 13:41:33;;;;;;;;;;;3.30;99.90;;;;;;5050584;28;19913;-78
2021/12/08 13:44:02;;;;;;;;;;;3.30;99.90;;;;;;5050603;28;19960;-77
2021/12/08 13:46:37;;;;;;;;;;;3.30;99.90;;;;;;5051259;28;20027;-77
2021/12/08 13:49:24;;;;;;;;;;;3.20;99.90;;;;;;5043170;28;19909;-77
2021/12/08 13:51:58;;;;;;;;;;;3.20;99.90;;;;;;5044585;28;19931;-77
2021/12/08 13:54:25;;;;;;;;;;;3.20;99.90;;;;;;5043953;28;19963;-77
2021/12/08 13:56:51;;;;;;;;;;;3.10;99.90;;;;;;5044580;28;19908;-76
2021/12/08 13:59:35;;;;;;;;;;;3.10;99.90;;;;;;5044418;28;19912;-78
2021/12/08 14:02:19;;;;;;;;;;;3.00;99.90;;;;;;5047651;28;20004;-78
2021/12/08 14:04:45;;;;;;;;;;;3.00;99.90;;;;;;5050427;28;19908;-77
2021/12/08 14:07:20;;;;;;;;;;;3.00;99.90;;;;;;5050866;28;19909;-77
2021/12/08 14:09:45;;;;;;;;;;;3.00;99.90;;;;;;5050927;28;19916;-77
2021/12/08 14:12:11;;;;;;;;;;;3.00;99.90;;;;;;5050733;28;20011;-76
2021/12/08 14:14:36;;;;;;;;;;;3.00;99.90;;;;;;5050724;28;19908;-76
2021/12/08 14:17:02;;;;;;;;;;;3.00;99.90;;;;;;5050804;28;20000;-76
2021/12/08 14:19:37;;;;;;;;;;;3.00;99.90;;;;;;5050486;28;19923;-77
2021/12/08 14:22:03;;;;;;;;;;;2.90;99.90;;;;;;5050349;28;19915;-76
2021/12/08 14:24:28;;;;;;;;;;;2.80;99.90;;;;;;5046807;28;19908;-76
2021/12/08 14:26:55;;;;;;;;;;;2.80;99.90;;;;;;5050858;28;19924;-76
2021/12/08 14:29:21;;;;;;;;;;;2.70;99.90;;;;;;5051050;28;19924;-76
2021/12/08 14:31:48;;;;;;;;;;;2.80;99.90;;;;;;5065757;28;19934;-75
2021/12/08 14:34:14;;;;;;;;;;;2.70;99.90;;;;;;5069592;28;19913;-77
2021/12/08 14:36:42;;;;;;;;;;;2.70;99.90;;;;;;5056361;28;20377;-76
2021/12/08 14:39:11;;;;;;;;;;;2.70;99.90;;;;;;5054632;28;19913;-77
2021/12/08 14:41:37;;;;;;;;;;;2.90;99.90;;;;;;5054397;28;19909;-76
2021/12/08 14:44:08;;;;;;;;;;;2.90;99.90;;;;;;5054048;28;19999;-76
2021/12/08 14:46:34;;;;;;;;;;;2.90;99.90;;;;;;5054177;28;20002;-77
2021/12/08 14:49:01;;;;;;;;;;;2.90;99.90;;;;;;5048434;28;19913;-76
2021/12/08 14:51:27;;;;;;;;;;;2.90;99.90;;;;;;5048539;28;19909;-76
2021/12/08 14:53:53;;;;;;;;;;;2.90;99.90;;;;;;5054005;28;20422;-76
2021/12/08 14:56:19;;;;;;;;;;;2.80;99.90;;;;;;5054364;28;19999;-76
2021/12/08 14:58:45;;;;;;;;;;;2.70;99.90;;;;;;5053721;28;19916;-76
2021/12/08 15:01:12;;;;;;;;;;;2.70;99.90;;;;;;5052043;28;20633;-76
2021/12/08 15:03:42;;;;;;;;;;;2.70;99.90;;;;;;5050155;28;19912;-77
2021/12/08 15:06:14;;;;;;;;;;;2.60;99.90;;;;;;5047359;28;19943;-77
2021/12/08 15:08:40;;;;;;;;;;;2.60;99.90;;;;;;5048164;28;19909;-77
2021/12/08 15:11:06;;;;;;;;;;;2.60;99.90;;;;;;5052696;28;20007;-76
2021/12/08 15:13:32;;;;;;;;;;;2.60;99.90;;;;;;5049660;28;19944;-77
2021/12/08 15:15:58;;;;;;;;;;;2.70;99.90;;;;;;5053777;28;19947;-76
2021/12/08 15:18:25;;;;;;;;;;;2.70;99.90;;;;;;5053889;28;19946;-76
2021/12/08 15:21:00;;;;;;;;;;;2.70;99.90;;;;;;5053837;28;19909;-76
2021/12/08 15:23:39;;;;;;;;;;;2.80;99.90;;;;;;5051507;28;20012;-76
2021/12/08 15:26:05;;;;;;;;;;;2.70;99.90;;;;;;5053145;28;19913;-76